Time;durP1;ratioP1;P1;durP2;ratioP2;P2;SDS_P1;SDS_P2;PMS_P1;PMS_P2;Temp;Humidity;BMP_temperature;BMP_pressure;BME280_temperature;BME280_humidity;BME280_pressure;Samples;Min_cycle;Max_cycle;Signal;HPM_P1;HPM_P2
2022/12/18 00:00:58;;;;;;;4.23;2.03;;;-2.00;99.90;;;;;;6172325;23;20280;-91
2022/12/18 00:03:24;;;;;;;2.30;2.10;;;-2.00;99.90;;;;;;6172886;23;20189;-91
2022/12/18 00:05:52;;;;;;;3.40;3.10;;;-2.00;99.90;;;;;;6196874;23;20272;-91
2022/12/18 00:08:18;;;;;;;3.43;3.13;;;-2.00;99.90;;;;;;6197202;23;20215;-92
2022/12/18 00:10:46;;;;;;;3.00;2.83;;;-2.00;99.90;;;;;;6197042;23;20207;-91
2022/12/18 00:13:12;;;;;;;12.40;7.47;;;-2.00;99.90;;;;;;6197161;23;20190;-92
2022/12/18 00:15:39;;;;;;;2.43;2.33;;;-2.00;99.90;;;;;;6196696;23;20181;-91
2022/12/18 00:18:05;;;;;;;3.77;3.47;;;-1.90;99.90;;;;;;6172769;23;20157;-92
2022/12/18 00:20:35;;;;;;;6.40;4.97;;;-2.00;99.90;;;;;;6221122;23;20547;-91
2022/12/18 00:23:01;;;;;;;3.37;3.27;;;-2.00;99.90;;;;;;6221938;23;20197;-91
2022/12/18 00:25:26;;;;;;;4.43;4.03;;;-1.90;99.90;;;;;;6172405;23;20802;-91
2022/12/18 00:27:52;;;;;;;3.03;2.93;;;-1.90;99.90;;;;;;6196576;23;20191;-91
2022/12/18 00:30:18;;;;;;;3.13;2.07;;;-1.90;99.90;;;;;;6222534;23;20232;-92
2022/12/18 00:32:44;;;;;;;5.93;5.40;;;-2.00;99.90;;;;;;6171695;23;20579;-91
2022/12/18 00:35:10;;;;;;;2.70;2.53;;;-1.90;99.90;;;;;;6172290;23;20189;-91
2022/12/18 00:37:35;;;;;;;5.67;5.00;;;-1.90;99.90;;;;;;6171961;23;20196;-90
2022/12/18 00:40:02;;;;;;;5.97;2.73;;;-1.90;99.90;;;;;;6221212;23;20331;-88
2022/12/18 00:45:11;;;;;;;3.10;1.27;;;-1.90;99.90;;;;;;6204685;23;20173;-89
2022/12/18 00:47:38;;;;;;;3.23;2.80;;;-1.90;99.90;;;;;;6171679;23;20200;-88
2022/12/18 00:50:04;;;;;;;4.03;2.47;;;-1.80;99.90;;;;;;6196306;23;20197;-88
2022/12/18 00:52:30;;;;;;;2.20;2.10;;;-1.80;99.90;;;;;;6196359;23;20902;-88
2022/12/18 00:54:56;;;;;;;6.80;3.53;;;-1.80;99.90;;;;;;6171078;23;20161;-88
2022/12/18 00:57:21;;;;;;;5.33;4.83;;;-1.80;99.90;;;;;;6172454;23;20162;-88
2022/12/18 00:59:48;;;;;;;3.63;3.40;;;-1.80;99.90;;;;;;6171016;23;20197;-88
2022/12/18 01:02:14;;;;;;;1.97;1.80;;;-1.80;99.90;;;;;;6196136;23;20243;-88
2022/12/18 01:04:39;;;;;;;3.67;3.47;;;-1.80;99.90;;;;;;6196174;23;20532;-88
2022/12/18 01:07:05;;;;;;;3.03;2.00;;;-1.80;99.90;;;;;;6171186;23;20220;-88
2022/12/18 01:09:31;;;;;;;2.70;2.60;;;-1.80;99.90;;;;;;6196827;23;20240;-88
2022/12/18 01:11:57;;;;;;;2.00;1.90;;;-1.70;99.90;;;;;;6196181;23;20198;-88
2022/12/18 01:14:22;;;;;;;6.37;4.80;;;-1.70;99.90;;;;;;6171054;23;20197;-88
2022/12/18 01:16:48;;;;;;;5.13;4.57;;;-1.70;99.90;;;;;;6195930;23;20199;-88
2022/12/18 01:19:14;;;;;;;3.40;1.70;;;-1.80;99.90;;;;;;6190515;23;20689;-88
2022/12/18 01:21:39;;;;;;;4.90;4.33;;;-1.70;99.90;;;;;;6191221;23;20168;-88
2022/12/18 01:24:06;;;;;;;7.20;3.80;;;-1.70;99.90;;;;;;6166452;23;20162;-88
2022/12/18 01:26:32;;;;;;;2.57;1.90;;;-1.70;99.90;;;;;;6190769;23;20646;-88
2022/12/18 01:28:58;;;;;;;2.40;2.07;;;-1.70;99.90;;;;;;6166044;23;20189;-88
2022/12/18 01:31:30;;;;;;;6.03;4.43;;;-1.70;99.90;;;;;;6215999;23;20194;-88
2022/12/18 01:33:55;;;;;;;1.93;1.90;;;-1.70;99.90;;;;;;6215812;23;20155;-88
2022/12/18 01:36:27;;;;;;;2.70;2.57;;;-1.80;99.90;;;;;;6166793;23;20456;-88
2022/12/18 01:38:53;;;;;;;11.60;4.27;;;-1.80;99.90;;;;;;6215531;23;20234;-88
2022/12/18 01:41:22;;;;;;;6.57;2.03;;;-1.80;99.90;;;;;;6216956;23;20194;-88
2022/12/18 01:43:54;;;;;;;4.43;4.13;;;-1.80;99.90;;;;;;6215519;23;20194;-88
2022/12/18 01:46:24;;;;;;;3.87;3.03;;;-1.90;99.90;;;;;;6215779;23;20186;-88
2022/12/18 01:48:57;;;;;;;5.77;4.07;;;-1.90;99.90;;;;;;6215699;23;20269;-88
2022/12/18 01:51:23;;;;;;;6.73;3.03;;;-1.80;99.90;;;;;;6215897;23;20165;-88
2022/12/18 01:53:49;;;;;;;2.37;1.53;;;-1.90;99.90;;;;;;6166041;23;20635;-87
2022/12/18 01:56:18;;;;;;;3.33;3.13;;;-2.00;99.90;;;;;;6190158;23;20210;-88
2022/12/18 01:59:09;;;;;;;3.53;3.23;;;-2.00;99.90;;;;;;6215261;23;20194;-87
2022/12/18 02:01:37;;;;;;;3.97;3.47;;;-2.00;99.90;;;;;;6216822;23;20646;-88
2022/12/18 02:04:23;;;;;;;3.43;3.13;;;-2.00;99.90;;;;;;6215435;23;20201;-87
2022/12/18 02:07:04;;;;;;;2.40;1.80;;;-2.00;99.90;;;;;;6216341;23;20158;-88
2022/12/18 02:09:47;;;;;;;2.60;2.43;;;-2.10;99.90;;;;;;6216014;23;20143;-88
2022/12/18 02:12:24;;;;;;;8.27;6.27;;;-2.10;99.90;;;;;;6215554;23;20208;-88
2022/12/18 02:14:59;;;;;;;5.33;4.97;;;-2.20;99.90;;;;;;6215175;23;20205;-88
2022/12/18 02:18:04;;;;;;;2.33;2.23;;;-2.20;99.90;;;;;;6215235;23;20197;-87
2022/12/18 02:20:56;;;;;;;1.27;1.20;;;-2.30;99.90;;;;;;6214845;23;20224;-88
2022/12/18 02:23:33;;;;;;;1.83;1.77;;;-2.40;99.90;;;;;;6170050;23;20221;-88
2022/12/18 02:26:04;;;;;;;1.60;1.60;;;-2.40;99.90;;;;;;6215093;23;20510;-87
2022/12/18 02:28:34;;;;;;;2.67;2.30;;;-2.50;99.90;;;;;;6215325;23;20646;-87
2022/12/18 02:31:03;;;;;;;3.10;2.90;;;-2.50;99.90;;;;;;6215088;23;20197;-88
2022/12/18 02:33:30;;;;;;;6.63;4.67;;;-2.50;99.90;;;;;;6215435;23;20169;-87
2022/12/18 02:35:58;;;;;;;5.63;4.23;;;-2.50;99.90;;;;;;6190329;23;20220;-87
2022/12/18 02:38:25;;;;;;;1.13;0.97;;;-2.60;99.90;;;;;;6215259;23;20202;-87
2022/12/18 02:40:52;;;;;;;2.10;2.07;;;-2.70;99.90;;;;;;6189945;23;20206;-87
2022/12/18 02:43:18;;;;;;;3.30;3.17;;;-2.70;99.90;;;;;;6215249;23;20194;-88
2022/12/18 02:45:56;;;;;;;11.37;5.07;;;-2.70;99.90;;;;;;6165311;23;20229;-88
2022/12/18 02:48:33;;;;;;;3.03;2.83;;;-2.70;99.90;;;;;;6215930;23;20149;-88
2022/12/18 02:51:23;;;;;;;3.40;2.23;;;-2.80;99.90;;;;;;6214788;23;20304;-88
2022/12/18 02:54:06;;;;;;;3.57;2.93;;;-2.80;99.90;;;;;;6214861;23;20511;-88
2022/12/18 02:56:42;;;;;;;8.50;2.57;;;-2.80;99.90;;;;;;6215130;23;20603;-88
2022/12/18 02:59:13;;;;;;;3.43;3.17;;;-2.80;99.90;;;;;;6214788;23;20198;-88
2022/12/18 03:01:54;;;;;;;17.37;2.67;;;-2.80;99.90;;;;;;6214982;23;20197;-87
2022/12/18 03:04:43;;;;;;;5.97;4.57;;;-2.80;99.90;;;;;;6214874;23;20500;-87
2022/12/18 03:07:17;;;;;;;1.73;1.73;;;-2.80;99.90;;;;;;6215026;23;20193;-87
2022/12/18 03:09:47;;;;;;;4.63;4.13;;;-2.80;99.90;;;;;;6214940;23;20169;-88
2022/12/18 03:12:25;;;;;;;3.70;3.50;;;-2.90;99.90;;;;;;6215720;23;20146;-88
2022/12/18 03:15:04;;;;;;;2.80;2.60;;;-2.90;99.90;;;;;;6214588;23;20566;-87
2022/12/18 03:17:32;;;;;;;2.20;2.13;;;-2.90;99.90;;;;;;6214379;23;20223;-88
2022/12/18 03:20:04;;;;;;;6.90;3.73;;;-3.00;99.90;;;;;;6214560;23;20221;-87
2022/12/18 03:22:33;;;;;;;3.83;2.43;;;-3.00;99.90;;;;;;6214632;23;20198;-87
2022/12/18 03:25:03;;;;;;;2.20;1.97;;;-3.00;99.90;;;;;;6189976;23;20221;-86
2022/12/18 03:27:32;;;;;;;24.50;4.80;;;-3.00;99.90;;;;;;6215295;23;20526;-87
2022/12/18 03:30:12;;;;;;;9.70;1.93;;;-3.00;99.90;;;;;;6214546;23;20193;-87
2022/12/18 03:32:54;;;;;;;1.33;1.30;;;-3.00;99.90;;;;;;6214846;23;20197;-87
2022/12/18 03:35:27;;;;;;;2.30;2.20;;;-3.10;99.90;;;;;;6214221;23;20201;-87
2022/12/18 03:37:53;;;;;;;4.53;3.20;;;-3.10;99.90;;;;;;6215896;23;20193;-87
2022/12/18 03:40:24;;;;;;;1.53;1.30;;;-3.10;99.90;;;;;;6189438;23;20198;-87
2022/12/18 03:42:57;;;;;;;2.53;2.43;;;-3.10;99.90;;;;;;6214795;23;20583;-87
2022/12/18 03:45:31;;;;;;;3.83;3.20;;;-3.10;99.90;;;;;;6215589;23;20146;-87
2022/12/18 03:48:06;;;;;;;4.67;4.37;;;-3.20;99.90;;;;;;6214398;23;20197;-88
2022/12/18 03:50:51;;;;;;;3.50;3.17;;;-3.20;99.90;;;;;;6214389;23;20280;-87
2022/12/18 03:53:40;;;;;;;3.77;3.20;;;-3.20;99.90;;;;;;6214687;23;20201;-87
2022/12/18 03:56:08;;;;;;;3.17;3.07;;;-3.30;99.90;;;;;;6195071;23;20202;-87
2022/12/18 03:58:37;;;;;;;2.80;2.60;;;-3.30;99.90;;;;;;6214514;23;20198;-87
2022/12/18 04:01:07;;;;;;;1.53;1.43;;;-3.30;99.90;;;;;;6214474;23;20224;-87
2022/12/18 04:03:35;;;;;;;5.83;2.13;;;-3.40;99.90;;;;;;6216609;23;20633;-87
2022/12/18 04:06:02;;;;;;;3.07;2.83;;;-3.50;99.90;;;;;;6214107;23;20198;-87
2022/12/18 04:08:28;;;;;;;1.33;1.33;;;-3.50;99.90;;;;;;6189455;23;20189;-87
2022/12/18 04:10:54;;;;;;;1.60;1.60;;;-3.50;99.90;;;;;;6214338;23;20189;-87
2022/12/18 04:13:33;;;;;;;4.13;2.63;;;-3.50;99.90;;;;;;6189465;23;20220;-87
2022/12/18 04:15:59;;;;;;;4.93;1.30;;;-3.50;99.90;;;;;;6214538;23;20668;-87
2022/12/18 04:18:25;;;;;;;1.87;1.60;;;-3.60;99.90;;;;;;6190402;23;20236;-87
2022/12/18 04:20:51;;;;;;;6.80;2.90;;;-3.70;99.90;;;;;;6164509;23;20214;-87
2022/12/18 04:23:17;;;;;;;3.10;1.77;;;-3.70;99.90;;;;;;6164761;23;20202;-87
2022/12/18 04:25:42;;;;;;;4.43;2.67;;;-3.70;99.90;;;;;;6164733;23;20194;-87
2022/12/18 04:28:08;;;;;;;4.13;4.00;;;-3.70;99.90;;;;;;6189593;23;20509;-87
2022/12/18 04:30:34;;;;;;;2.53;1.60;;;-3.70;99.90;;;;;;6191553;23;20553;-87
2022/12/18 04:33:00;;;;;;;1.50;1.07;;;-3.80;99.90;;;;;;6216149;23;20253;-87
2022/12/18 04:35:25;;;;;;;3.80;3.57;;;-3.80;99.90;;;;;;6190840;23;20203;-88
2022/12/18 04:37:51;;;;;;;2.47;2.37;;;-3.90;99.90;;;;;;6166367;23;20190;-87
2022/12/18 04:40:17;;;;;;;1.13;1.13;;;-3.90;99.90;;;;;;6166395;23;20204;-87
2022/12/18 04:42:42;;;;;;;2.93;2.73;;;-3.90;99.90;;;;;;6166727;23;20166;-88
2022/12/18 04:45:09;;;;;;;2.50;2.40;;;-3.80;99.90;;;;;;6192154;23;20159;-88
2022/12/18 04:47:34;;;;;;;4.73;4.53;;;-3.80;99.90;;;;;;6191280;23;20564;-88
2022/12/18 04:50:00;;;;;;;2.03;1.23;;;-3.80;99.90;;;;;;6166248;23;20197;-87
2022/12/18 04:52:26;;;;;;;1.47;1.37;;;-3.90;99.90;;;;;;6191240;23;20194;-87
2022/12/18 04:54:51;;;;;;;1.90;1.80;;;-3.90;99.90;;;;;;6166450;23;20494;-88
2022/12/18 04:57:20;;;;;;;3.63;2.20;;;-3.80;99.90;;;;;;6192075;23;20162;-87
2022/12/18 04:59:46;;;;;;;1.40;1.37;;;-3.80;99.90;;;;;;6167232;23;20206;-87
2022/12/18 05:02:11;;;;;;;5.97;5.47;;;-3.80;99.90;;;;;;6166020;23;20709;-87
2022/12/18 05:04:37;;;;;;;9.00;7.73;;;-3.80;99.90;;;;;;6166440;23;20193;-87
2022/12/18 05:07:03;;;;;;;3.10;3.00;;;-3.90;99.90;;;;;;6166635;23;20194;-87
2022/12/18 05:09:29;;;;;;;3.50;3.37;;;-3.80;99.90;;;;;;6166540;23;20166;-87
2022/12/18 05:11:54;;;;;;;0.40;0.40;;;-3.80;99.90;;;;;;6166299;23;20290;-88
2022/12/18 05:14:20;;;;;;;3.40;3.10;;;-3.80;99.90;;;;;;6166334;23;20703;-87
2022/12/18 05:16:46;;;;;;;3.40;3.30;;;-3.80;99.90;;;;;;6166020;23;20189;-87
2022/12/18 05:19:12;;;;;;;3.43;3.17;;;-3.80;99.90;;;;;;6190827;23;20530;-87
2022/12/18 05:21:37;;;;;;;2.60;2.40;;;-3.90;99.90;;;;;;6191403;23;20713;-88
2022/12/18 05:24:04;;;;;;;4.17;3.97;;;-3.90;99.90;;;;;;6166382;23;20192;-87
2022/12/18 05:26:29;;;;;;;3.27;3.17;;;-3.90;99.90;;;;;;6165855;23;20198;-87
2022/12/18 05:28:56;;;;;;;1.50;1.33;;;-3.90;99.90;;;;;;6166016;23;20193;-88
2022/12/18 05:31:22;;;;;;;0.90;0.90;;;-3.90;99.90;;;;;;6166491;23;20265;-87
2022/12/18 05:33:48;;;;;;;4.03;3.87;;;-3.90;99.90;;;;;;6215772;23;20189;-88
2022/12/18 05:36:14;;;;;;;7.67;4.07;;;-3.90;99.90;;;;;;6166372;23;20155;-87
2022/12/18 05:38:40;;;;;;;1.97;1.87;;;-3.90;99.90;;;;;;6165534;23;20723;-87
2022/12/18 05:41:06;;;;;;;0.67;0.67;;;-3.90;99.90;;;;;;6190479;23;20231;-87
2022/12/18 05:43:38;;;;;;;1.27;0.87;;;-3.90;99.90;;;;;;6190472;23;20197;-87
2022/12/18 05:46:06;;;;;;;2.67;2.50;;;-4.00;99.90;;;;;;6215454;23;20232;-87
2022/12/18 05:48:32;;;;;;;1.63;1.60;;;-4.00;99.90;;;;;;6191097;23;20185;-87
2022/12/18 05:51:07;;;;;;;1.23;1.20;;;-4.00;99.90;;;;;;6215481;23;20206;-87
2022/12/18 05:53:33;;;;;;;4.13;2.23;;;-4.00;99.90;;;;;;6215722;23;20193;-88
2022/12/18 05:56:04;;;;;;;4.40;3.90;;;-4.00;99.90;;;;;;6215586;23;20216;-87
2022/12/18 05:58:31;;;;;;;2.33;2.17;;;-4.00;99.90;;;;;;6214992;23;20272;-87
2022/12/18 06:00:56;;;;;;;4.33;3.93;;;-4.00;99.90;;;;;;6190272;23;20217;-87
2022/12/18 06:03:22;;;;;;;7.43;5.97;;;-4.10;99.90;;;;;;6166125;23;20158;-87
2022/12/18 06:05:48;;;;;;;2.10;2.00;;;-4.10;99.90;;;;;;6190255;23;20190;-87
2022/12/18 06:08:14;;;;;;;2.53;2.43;;;-4.10;99.90;;;;;;6190018;23;20198;-87
2022/12/18 06:10:40;;;;;;;1.23;1.17;;;-4.10;99.90;;;;;;6215237;23;20196;-87
2022/12/18 06:13:07;;;;;;;5.20;4.43;;;-4.10;99.90;;;;;;6215443;23;20273;-87
2022/12/18 06:15:33;;;;;;;3.47;3.27;;;-4.10;99.90;;;;;;6216127;23;20154;-87
2022/12/18 06:18:00;;;;;;;1.57;1.47;;;-4.10;99.90;;;;;;6190419;23;20194;-87
2022/12/18 06:20:25;;;;;;;2.97;2.73;;;-4.10;99.90;;;;;;6189971;23;20693;-87
2022/12/18 06:22:52;;;;;;;1.67;1.03;;;-4.10;99.90;;;;;;6165641;23;20198;-87
2022/12/18 06:25:17;;;;;;;3.83;3.63;;;-4.10;99.90;;;;;;6165571;23;20197;-88
2022/12/18 06:27:43;;;;;;;1.97;1.87;;;-4.10;99.90;;;;;;6190031;23;20158;-88
2022/12/18 06:30:10;;;;;;;1.57;1.50;;;-4.20;99.90;;;;;;6191027;23;20162;-89
2022/12/18 06:32:35;;;;;;;9.73;0.83;;;-4.20;99.90;;;;;;6190200;23;20202;-87
2022/12/18 06:35:01;;;;;;;6.17;2.00;;;-4.30;99.90;;;;;;6165359;23;20280;-87
2022/12/18 06:37:27;;;;;;;2.40;1.33;;;-4.30;99.90;;;;;;6165029;23;20193;-87
2022/12/18 06:39:53;;;;;;;0.40;0.40;;;-4.40;99.90;;;;;;6215095;23;20183;-87
2022/12/18 06:42:22;;;;;;;2.10;2.00;;;-4.30;99.90;;;;;;6190449;23;20161;-87
2022/12/18 06:44:47;;;;;;;0.57;0.57;;;-4.30;99.90;;;;;;6190949;23;20217;-87
2022/12/18 06:47:13;;;;;;;2.43;2.33;;;-4.30;99.90;;;;;;6189837;23;20221;-87
2022/12/18 06:49:39;;;;;;;4.67;3.37;;;-4.30;99.90;;;;;;6165150;23;20278;-87
2022/12/18 06:52:04;;;;;;;2.63;2.53;;;-4.40;99.90;;;;;;6165237;23;20201;-88
2022/12/18 06:54:30;;;;;;;13.87;4.80;;;-4.50;99.90;;;;;;6165631;23;20162;-87
2022/12/18 06:56:56;;;;;;;2.23;2.03;;;-4.50;99.90;;;;;;6164976;23;20209;-87
2022/12/18 06:59:21;;;;;;;1.03;0.93;;;-4.50;99.90;;;;;;6165126;23;20285;-87
2022/12/18 07:01:47;;;;;;;2.53;2.43;;;-4.60;99.90;;;;;;6190005;23;20526;-87
2022/12/18 07:04:13;;;;;;;0.87;0.87;;;-4.60;99.90;;;;;;6189763;23;20224;-87
2022/12/18 07:06:39;;;;;;;1.20;1.13;;;-4.60;99.90;;;;;;6214742;23;20165;-87
2022/12/18 07:09:04;;;;;;;5.37;4.93;;;-4.60;99.90;;;;;;6189978;23;20162;-87
2022/12/18 07:11:32;;;;;;;1.23;1.23;;;-4.60;99.90;;;;;;6165137;23;20277;-87
2022/12/18 07:13:58;;;;;;;3.30;2.67;;;-4.60;99.90;;;;;;6214666;23;20208;-87
2022/12/18 07:16:24;;;;;;;1.60;1.60;;;-4.50;99.90;;;;;;6165104;23;20209;-87
2022/12/18 07:18:49;;;;;;;1.17;1.17;;;-4.60;99.90;;;;;;6191972;23;20172;-88
2022/12/18 07:21:18;;;;;;;2.93;1.63;;;-4.50;99.90;;;;;;6195616;23;20160;-87
2022/12/18 07:23:46;;;;;;;0.67;0.67;;;-4.50;99.90;;;;;;6219597;23;20270;-87
2022/12/18 07:26:13;;;;;;;2.60;2.50;;;-4.50;99.90;;;;;;6170951;23;20192;-87
2022/12/18 07:28:41;;;;;;;1.27;1.17;;;-4.40;99.90;;;;;;6219400;23;20592;-86
2022/12/18 07:31:12;;;;;;;3.50;3.20;;;-4.50;99.90;;;;;;6219633;23;20248;-86
2022/12/18 07:33:37;;;;;;;0.40;0.40;;;-4.50;99.90;;;;;;6220402;23;20142;-89
2022/12/18 07:36:05;;;;;;;2.47;1.77;;;-4.50;99.90;;;;;;6170535;23;20521;-89
2022/12/18 07:38:32;;;;;;;2.50;2.40;;;-4.50;99.90;;;;;;6194473;23;20272;-88
2022/12/18 07:41:05;;;;;;;0.20;0.20;;;-4.50;99.90;;;;;;6218904;23;20209;-88
2022/12/18 07:43:31;;;;;;;4.03;2.43;;;-4.50;99.90;;;;;;6195520;23;20209;-88
2022/12/18 07:45:57;;;;;;;1.70;1.37;;;-4.40;99.90;;;;;;6219708;23;20169;-88
2022/12/18 07:48:23;;;;;;;0.23;0.23;;;-4.40;99.90;;;;;;6219667;23;20447;-89
2022/12/18 07:50:49;;;;;;;0.80;0.80;;;-4.40;99.90;;;;;;6193774;23;20200;-89
2022/12/18 07:53:14;;;;;;;1.30;1.30;;;-4.40;99.90;;;;;;6193871;23;20189;-89
2022/12/18 07:55:41;;;;;;;0.80;0.80;;;-4.50;99.90;;;;;;6169000;23;20193;-88
2022/12/18 07:58:07;;;;;;;1.00;0.97;;;-4.50;99.90;;;;;;6219031;23;20256;-89
2022/12/18 08:00:33;;;;;;;0.80;0.80;;;-4.50;99.90;;;;;;6219963;23;20174;-88
2022/12/18 08:02:59;;;;;;;0.73;0.73;;;-4.40;99.90;;;;;;6219904;23;20196;-89
2022/12/18 08:05:25;;;;;;;0.50;0.50;;;-4.40;99.90;;;;;;6196224;23;20201;-88
2022/12/18 08:07:50;;;;;;;1.00;1.00;;;-4.30;99.90;;;;;;6171915;23;20189;-88
2022/12/18 08:10:17;;;;;;;3.03;1.20;;;-4.30;99.90;;;;;;6196768;23;20185;-88
2022/12/18 08:12:42;;;;;;;1.27;1.27;;;-4.20;99.90;;;;;;6220503;23;20157;-89
2022/12/18 08:15:08;;;;;;;1.90;1.80;;;-4.20;99.90;;;;;;6172370;23;20161;-87
2022/12/18 08:17:34;;;;;;;0.63;0.63;;;-4.20;99.90;;;;;;6196145;23;20275;-88
2022/12/18 08:20:00;;;;;;;2.30;1.50;;;-4.20;99.90;;;;;;6195590;23;20572;-88
2022/12/18 08:22:26;;;;;;;3.70;3.37;;;-4.20;99.90;;;;;;6171471;23;20268;-89
2022/12/18 08:24:51;;;;;;;1.80;1.80;;;-4.30;99.90;;;;;;6196268;23;20154;-88
2022/12/18 08:27:17;;;;;;;0.40;0.40;;;-4.20;99.90;;;;;;6172597;23;20208;-89
2022/12/18 08:29:43;;;;;;;0.20;0.20;;;-4.20;99.90;;;;;;6196194;23;20262;-89
2022/12/18 08:32:09;;;;;;;0.77;0.77;;;-4.10;99.90;;;;;;6171836;23;20246;-89
2022/12/18 08:34:34;;;;;;;1.80;0.87;;;-4.10;99.90;;;;;;6171919;23;20200;-89
2022/12/18 08:37:00;;;;;;;1.20;1.20;;;-4.00;99.90;;;;;;6171480;23;20250;-89
2022/12/18 08:39:26;;;;;;;1.93;1.43;;;-3.90;99.90;;;;;;6172589;23;20181;-89
2022/12/18 08:44:38;;;;;;;1.67;1.67;;;-3.80;99.90;;;;;;6204059;23;20197;-88
2022/12/18 08:47:05;;;;;;;1.37;1.37;;;-3.70;99.90;;;;;;6172532;23;20657;-89
2022/12/18 08:49:31;;;;;;;2.90;2.73;;;-3.70;99.90;;;;;;6221382;23;20236;-88
2022/12/18 08:51:57;;;;;;;2.17;2.00;;;-3.60;99.90;;;;;;6221249;23;20189;-89
2022/12/18 08:54:24;;;;;;;4.40;1.53;;;-3.60;99.90;;;;;;6221482;23;20488;-89
2022/12/18 08:56:50;;;;;;;1.27;1.17;;;-3.50;99.90;;;;;;6221285;23;20197;-89
2022/12/18 08:59:19;;;;;;;1.27;0.80;;;-3.50;99.90;;;;;;6220748;23;20205;-90
2022/12/18 09:01:46;;;;;;;0.37;0.37;;;-3.40;99.90;;;;;;6218982;23;20588;-90
2022/12/18 09:04:12;;;;;;;0.97;0.97;;;-3.40;99.90;;;;;;6221168;23;20622;-90
2022/12/18 09:06:38;;;;;;;1.57;1.57;;;-3.30;99.90;;;;;;6170554;23;20579;-91
2022/12/18 09:09:05;;;;;;;2.13;2.00;;;-3.20;99.90;;;;;;6171170;23;20157;-91
2022/12/18 09:11:32;;;;;;;1.10;1.10;;;-3.20;99.90;;;;;;6195224;23;20676;-92
2022/12/18 09:13:59;;;;;;;1.43;1.33;;;-3.10;99.90;;;;;;6170219;23;20197;-92
2022/12/18 09:16:27;;;;;;;3.90;3.00;;;-3.00;99.90;;;;;;6219802;23;20204;-91
2022/12/18 09:18:59;;;;;;;1.27;1.23;;;-2.90;99.90;;;;;;6220167;23;20236;-90
2022/12/18 09:21:26;;;;;;;4.80;1.87;;;-2.90;99.90;;;;;;6220332;23;20146;-91
2022/12/18 09:23:54;;;;;;;1.80;1.50;;;-2.80;99.90;;;;;;6219719;23;20578;-91
2022/12/18 09:26:20;;;;;;;0.87;0.87;;;-2.70;99.90;;;;;;6194858;23;20277;-91
2022/12/18 09:28:46;;;;;;;4.00;3.60;;;-2.60;99.90;;;;;;6195242;23;20247;-92
2022/12/18 09:31:13;;;;;;;0.43;0.43;;;-2.60;99.90;;;;;;6194832;23;20638;-91
2022/12/18 09:33:38;;;;;;;2.77;2.57;;;-2.50;99.90;;;;;;6220013;23;20480;-91
2022/12/18 09:36:06;;;;;;;0.57;0.57;;;-2.40;99.90;;;;;;6170676;23;20158;-91
2022/12/18 09:38:33;;;;;;;2.13;1.83;;;-2.40;99.90;;;;;;6194990;23;20204;-91
2022/12/18 09:41:41;;;;;;;0.97;0.97;;;-2.40;99.90;;;;;;6194689;23;20212;-92
2022/12/18 09:44:22;;;;;;;1.33;1.33;;;-2.30;99.90;;;;;;6162772;23;20201;-90
2022/12/18 09:46:58;;;;;;;0.50;0.50;;;-2.20;99.90;;;;;;6219784;23;20649;-90
2022/12/18 09:49:28;;;;;;;2.40;1.83;;;-2.20;99.90;;;;;;6219759;23;20195;-92
2022/12/18 09:52:09;;;;;;;2.10;1.67;;;-2.20;99.90;;;;;;6215609;23;20650;-91
2022/12/18 09:54:39;;;;;;;3.80;2.73;;;-2.10;99.90;;;;;;6219504;23;20521;-90
2022/12/18 09:57:05;;;;;;;1.57;1.53;;;-2.10;99.90;;;;;;6220044;23;20543;-91
2022/12/18 09:59:36;;;;;;;1.17;1.17;;;-2.10;99.90;;;;;;6196073;23;20203;-91
2022/12/18 10:02:21;;;;;;;0.77;0.77;;;-2.00;99.90;;;;;;6219546;23;20650;-91
2022/12/18 10:05:05;;;;;;;2.37;2.27;;;-1.90;99.90;;;;;;6219958;23;20193;-91
2022/12/18 10:07:53;;;;;;;4.10;3.77;;;-1.80;99.90;;;;;;6219664;23;20654;-91
2022/12/18 10:10:40;;;;;;;1.27;1.27;;;-1.70;99.90;;;;;;6218313;23;20204;-90
2022/12/18 10:13:27;;;;;;;1.60;1.60;;;-1.70;99.90;;;;;;6218578;23;20702;-91
2022/12/18 10:16:20;;;;;;;2.57;1.67;;;-1.60;99.90;;;;;;6218184;23;20185;-90
2022/12/18 10:19:05;;;;;;;0.57;0.57;;;-1.60;99.90;;;;;;6218965;23;20503;-91
2022/12/18 10:21:57;;;;;;;2.73;1.27;;;-1.60;99.90;;;;;;6218430;23;20201;-91
2022/12/18 10:24:50;;;;;;;1.47;1.37;;;-1.50;99.90;;;;;;6212717;23;20193;-91
2022/12/18 10:27:21;;;;;;;1.20;1.20;;;-1.50;99.90;;;;;;6217478;23;20200;-91
2022/12/18 10:29:47;;;;;;;0.40;0.40;;;-1.50;99.90;;;;;;6218963;23;20197;-91
2022/12/18 10:32:19;;;;;;;15.07;2.27;;;-1.40;99.90;;;;;;6192911;23;20193;-91
2022/12/18 10:34:46;;;;;;;5.90;2.47;;;-1.30;99.90;;;;;;6216139;23;20276;-91
2022/12/18 10:37:18;;;;;;;0.53;0.53;;;-1.30;99.90;;;;;;6192553;23;20201;-91
2022/12/18 10:39:44;;;;;;;3.23;1.47;;;-1.20;99.90;;;;;;6218506;23;20201;-91
2022/12/18 10:42:19;;;;;;;2.60;1.87;;;-1.20;99.90;;;;;;6168510;23;20189;-90
2022/12/18 10:44:45;;;;;;;1.67;1.27;;;-1.10;99.90;;;;;;6194293;23;20161;-90
2022/12/18 10:47:15;;;;;;;3.90;1.60;;;-1.10;99.90;;;;;;6167784;23;20279;-90
2022/12/18 10:49:52;;;;;;;2.33;2.23;;;-1.00;99.90;;;;;;6218048;23;20203;-91
2022/12/18 10:52:22;;;;;;;0.50;0.50;;;-0.90;99.90;;;;;;6217392;23;20219;-90
2022/12/18 10:54:52;;;;;;;2.10;2.00;;;-0.90;99.90;;;;;;6218295;23;20521;-90
2022/12/18 10:57:36;;;;;;;0.30;0.30;;;-0.80;99.90;;;;;;6217561;23;20196;-90
2022/12/18 11:00:22;;;;;;;1.83;1.73;;;-0.70;99.90;;;;;;6217488;23;20192;-91
2022/12/18 11:02:48;;;;;;;0.60;0.57;;;-0.70;99.90;;;;;;6218590;23;20232;-90
2022/12/18 11:05:36;;;;;;;2.20;2.10;;;-0.70;99.90;;;;;;6217138;23;20193;-91
2022/12/18 11:08:03;;;;;;;1.40;0.60;;;-0.60;99.90;;;;;;6217539;23;20193;-91
2022/12/18 11:10:40;;;;;;;3.83;3.50;;;-0.60;99.90;;;;;;6217542;23;20204;-91
2022/12/18 11:13:27;;;;;;;1.57;1.57;;;-0.60;99.90;;;;;;6217324;23;20193;-91
2022/12/18 11:15:53;;;;;;;0.73;0.73;;;-0.50;99.90;;;;;;6218033;23;20248;-91
2022/12/18 11:18:34;;;;;;;2.03;1.93;;;-0.50;99.90;;;;;;6168112;23;20217;-91
2022/12/18 11:21:07;;;;;;;0.60;0.60;;;-0.40;99.90;;;;;;6216814;23;20204;-91
2022/12/18 11:23:34;;;;;;;2.07;1.20;;;-0.40;99.90;;;;;;6194026;23;20146;-90
2022/12/18 11:26:02;;;;;;;1.60;1.60;;;-0.30;99.90;;;;;;6169855;23;20264;-90
2022/12/18 11:28:38;;;;;;;2.40;2.30;;;-0.20;99.90;;;;;;6220247;23;20641;-90
2022/12/18 11:31:15;;;;;;;1.43;1.20;;;-0.20;99.90;;;;;;6220283;23;20275;-90
2022/12/18 11:33:46;;;;;;;1.23;1.17;;;-0.20;99.90;;;;;;6220145;23;20189;-91
2022/12/18 11:36:14;;;;;;;1.63;1.53;;;-0.10;99.90;;;;;;6220511;23;20197;-89
2022/12/18 11:38:42;;;;;;;3.93;2.07;;;-0.10;99.90;;;;;;6170646;23;20160;-90
2022/12/18 11:44:59;;;;;;;0.60;0.60;;;-0.10;99.90;;;;;;6184315;23;20218;-90
2022/12/18 11:47:55;;;;;;;1.53;1.53;;;-0.10;99.90;;;;;;6159527;23;20313;-90
2022/12/18 11:50:25;;;;;;;0.70;0.70;;;-0.10;99.90;;;;;;6230987;23;20691;-90
2022/12/18 11:52:51;;;;;;;2.47;2.20;;;-0.10;99.90;;;;;;6221139;23;20197;-90
2022/12/18 11:55:41;;;;;;;0.63;0.63;;;-0.10;99.90;;;;;;6171355;23;20212;-90
2022/12/18 11:58:29;;;;;;;1.80;1.77;;;-0.20;99.90;;;;;;6220988;23;20222;-91
2022/12/18 12:01:18;;;;;;;1.33;1.33;;;-0.30;99.90;;;;;;6221685;23;20255;-90
2022/12/18 12:04:15;;;;;;;1.37;1.27;;;-0.30;99.90;;;;;;6221902;23;20201;-89
2022/12/18 12:07:01;;;;;;;0.90;0.90;;;-0.30;99.90;;;;;;6220426;23;20189;-90
2022/12/18 12:09:49;;;;;;;0.73;0.73;;;-0.20;99.90;;;;;;6219823;23;20197;-90
2022/12/18 12:12:45;;;;;;;1.17;1.17;;;-0.20;99.90;;;;;;6221277;23;20193;-90
2022/12/18 12:15:25;;;;;;;1.90;1.80;;;-0.20;99.90;;;;;;6221123;23;20146;-90
2022/12/18 12:17:57;;;;;;;0.50;0.50;;;-0.10;99.90;;;;;;6221654;23;20244;-90
2022/12/18 12:20:32;;;;;;;2.20;2.10;;;-0.10;99.90;;;;;;6212755;23;20247;-91
2022/12/18 12:23:33;;;;;;;0.93;0.93;;;0.00;99.90;;;;;;6201687;23;20224;-91
2022/12/18 12:26:15;;;;;;;1.73;1.70;;;-0.10;99.90;;;;;;6133135;23;20649;-93
2022/12/18 12:29:05;;;;;;;0.70;0.70;;;-0.10;99.90;;;;;;6201976;23;20533;-91
2022/12/18 12:31:42;;;;;;;0.87;0.63;;;-0.10;99.90;;;;;;6201737;23;20207;-91
2022/12/18 12:34:26;;;;;;;1.20;1.20;;;0.00;99.90;;;;;;6205776;23;20275;-90
2022/12/18 12:37:11;;;;;;;1.40;1.40;;;0.00;99.90;;;;;;6219895;23;20541;-90
2022/12/18 12:39:40;;;;;;;1.23;1.13;;;0.10;99.90;;;;;;6219489;23;20200;-91
2022/12/18 12:45:21;;;;;;;0.20;0.20;;;0.20;99.90;;;;;;6246280;23;20153;-90
2022/12/18 12:47:49;;;;;;;0.57;0.57;;;0.30;99.90;;;;;;6221094;23;20499;-88
2022/12/18 12:50:18;;;;;;;1.67;1.47;;;0.30;99.90;;;;;;6246697;23;20201;-88
2022/12/18 12:52:51;;;;;;;1.20;1.20;;;0.30;99.90;;;;;;6218924;23;20705;-89
2022/12/18 12:55:21;;;;;;;1.67;1.07;;;0.30;99.90;;;;;;6220372;23;20244;-89
2022/12/18 12:58:21;;;;;;;0.70;0.70;;;0.30;99.90;;;;;;6220288;23;20688;-89
2022/12/18 13:01:12;;;;;;;0.77;0.77;;;0.30;99.90;;;;;;6220765;23;20217;-89
2022/12/18 13:04:03;;;;;;;0.60;0.60;;;0.30;99.90;;;;;;6221199;23;20189;-89
2022/12/18 13:07:05;;;;;;;0.47;0.47;;;0.30;99.90;;;;;;6221479;23;20650;-89
2022/12/18 13:09:32;;;;;;;1.07;1.07;;;0.20;99.90;;;;;;6152260;23;20273;-89
2022/12/18 13:15:21;;;;;;;0.70;0.70;;;0.20;99.90;;;;;;6247241;23;20221;-89
2022/12/18 13:17:47;;;;;;;0.97;0.87;;;0.20;99.90;;;;;;6221708;23;20137;-89
2022/12/18 13:20:14;;;;;;;0.40;0.40;;;0.10;99.90;;;;;;6195327;23;20657;-90
2022/12/18 13:22:48;;;;;;;1.77;1.67;;;0.10;99.90;;;;;;6220846;23;20573;-90